sensor_id;sensor_type;location;lat;lon;timestamp;temperature;humidity
1948;DHT22;974;52.400;9.818;2023-04-24T00:00:05;12.90;99.90
1948;DHT22;974;52.400;9.818;2023-04-24T00:02:31;12.80;99.90
1948;DHT22;974;52.400;9.818;2023-04-24T00:04:58;12.80;99.90
1948;DHT22;974;52.400;9.818;2023-04-24T00:07:28;12.80;99.90
1948;DHT22;974;52.400;9.818;2023-04-24T00:09:53;12.80;99.90
1948;DHT22;974;52.400;9.818;2023-04-24T00:12:19;12.70;99.90
1948;DHT22;974;52.400;9.818;2023-04-24T00:14:45;12.70;99.90
1948;DHT22;974;52.400;9.818;2023-04-24T00:17:10;12.70;99.90
1948;DHT22;974;52.400;9.818;2023-04-24T00:19:36;12.70;99.90
1948;DHT22;974;52.400;9.818;2023-04-24T00:22:02;12.70;99.90
1948;DHT22;974;52.400;9.818;2023-04-24T00:24:28;12.60;99.90
1948;DHT22;974;52.400;9.818;2023-04-24T00:26:53;12.60;99.90
1948;DHT22;974;52.400;9.818;2023-04-24T00:29:19;12.60;99.90
1948;DHT22;974;52.400;9.818;2023-04-24T00:31:44;12.60;99.90
1948;DHT22;974;52.400;9.818;2023-04-24T00:34:10;12.40;99.90
1948;DHT22;974;52.400;9.818;2023-04-24T00:36:36;12.40;99.90
1948;DHT22;974;52.400;9.818;2023-04-24T00:39:02;12.40;99.90
1948;DHT22;974;52.400;9.818;2023-04-24T00:41:28;12.30;99.90
1948;DHT22;974;52.400;9.818;2023-04-24T00:43:53;12.40;99.90
1948;DHT22;974;52.400;9.818;2023-04-24T00:46:19;12.30;99.90
1948;DHT22;974;52.400;9.818;2023-04-24T00:48:45;12.30;99.90
1948;DHT22;974;52.400;9.818;2023-04-24T00:51:11;12.30;99.90
1948;DHT22;974;52.400;9.818;2023-04-24T00:53:37;12.20;99.90
1948;DHT22;974;52.400;9.818;2023-04-24T00:56:03;12.30;99.90
1948;DHT22;974;52.400;9.818;2023-04-24T00:58:29;12.20;99.90
1948;DHT22;974;52.400;9.818;2023-04-24T01:00:56;12.20;99.90
1948;DHT22;974;52.400;9.818;2023-04-24T01:03:25;12.20;99.90
1948;DHT22;974;52.400;9.818;2023-04-24T01:05:52;12.20;99.90
1948;DHT22;974;52.400;9.818;2023-04-24T01:08:18;12.20;99.90
1948;DHT22;974;52.400;9.818;2023-04-24T01:10:44;12.20;99.90
1948;DHT22;974;52.400;9.818;2023-04-24T01:13:11;12.20;99.90
1948;DHT22;974;52.400;9.818;2023-04-24T01:15:37;12.20;99.90
1948;DHT22;974;52.400;9.818;2023-04-24T01:18:03;12.20;99.90
1948;DHT22;974;52.400;9.818;2023-04-24T01:20:28;12.10;99.90
1948;DHT22;974;52.400;9.818;2023-04-24T01:22:55;12.20;99.90
1948;DHT22;974;52.400;9.818;2023-04-24T01:25:22;12.20;99.90
1948;DHT22;974;52.400;9.818;2023-04-24T01:27:47;12.20;99.90
1948;DHT22;974;52.400;9.818;2023-04-24T01:30:13;12.10;99.90
1948;DHT22;974;52.400;9.818;2023-04-24T01:32:40;12.10;99.90
1948;DHT22;974;52.400;9.818;2023-04-24T01:35:07;12.10;99.90
1948;DHT22;974;52.400;9.818;2023-04-24T01:37:33;12.10;99.90
1948;DHT22;974;52.400;9.818;2023-04-24T01:39:58;12.10;99.90
1948;DHT22;974;52.400;9.818;2023-04-24T01:42:24;12.10;99.90
1948;DHT22;974;52.400;9.818;2023-04-24T01:44:50;12.10;99.90
1948;DHT22;974;52.400;9.818;2023-04-24T01:47:16;12.10;99.90
1948;DHT22;974;52.400;9.818;2023-04-24T01:49:42;12.10;99.90
1948;DHT22;974;52.400;9.818;2023-04-24T01:52:07;12.10;99.90
1948;DHT22;974;52.400;9.818;2023-04-24T01:54:33;12.10;99.90
1948;DHT22;974;52.400;9.818;2023-04-24T01:56:59;12.00;99.90
1948;DHT22;974;52.400;9.818;2023-04-24T01:59:28;12.00;99.90
1948;DHT22;974;52.400;9.818;2023-04-24T02:01:53;12.00;99.90
1948;DHT22;974;52.400;9.818;2023-04-24T02:04:19;12.00;99.90
1948;DHT22;974;52.400;9.818;2023-04-24T02:06:44;11.70;99.90
1948;DHT22;974;52.400;9.818;2023-04-24T02:09:10;11.90;99.90
1948;DHT22;974;52.400;9.818;2023-04-24T02:11:36;11.90;99.90
1948;DHT22;974;52.400;9.818;2023-04-24T02:14:02;11.90;99.90
1948;DHT22;974;52.400;9.818;2023-04-24T02:16:28;11.90;99.90
1948;DHT22;974;52.400;9.818;2023-04-24T02:18:57;11.90;99.90
1948;DHT22;974;52.400;9.818;2023-04-24T02:21:22;11.70;99.90
1948;DHT22;974;52.400;9.818;2023-04-24T02:23:48;11.90;99.90
1948;DHT22;974;52.400;9.818;2023-04-24T02:26:13;11.90;99.90
1948;DHT22;974;52.400;9.818;2023-04-24T02:28:39;11.80;99.90
1948;DHT22;974;52.400;9.818;2023-04-24T02:31:05;11.90;99.90
1948;DHT22;974;52.400;9.818;2023-04-24T02:33:31;11.90;99.90
1948;DHT22;974;52.400;9.818;2023-04-24T02:35:56;11.80;99.90
1948;DHT22;974;52.400;9.818;2023-04-24T02:38:22;11.80;99.90
1948;DHT22;974;52.400;9.818;2023-04-24T02:40:48;11.80;99.90
1948;DHT22;974;52.400;9.818;2023-04-24T02:43:13;11.80;99.90
1948;DHT22;974;52.400;9.818;2023-04-24T02:45:39;11.80;99.90
1948;DHT22;974;52.400;9.818;2023-04-24T02:48:04;11.80;99.90
1948;DHT22;974;52.400;9.818;2023-04-24T02:50:30;11.80;99.90
1948;DHT22;974;52.400;9.818;2023-04-24T02:52:55;11.80;99.90
1948;DHT22;974;52.400;9.818;2023-04-24T02:55:21;11.80;99.90
1948;DHT22;974;52.400;9.818;2023-04-24T02:57:46;11.70;99.90
1948;DHT22;974;52.400;9.818;2023-04-24T03:00:12;11.70;99.90
1948;DHT22;974;52.400;9.818;2023-04-24T03:02:38;11.60;99.90
1948;DHT22;974;52.400;9.818;2023-04-24T03:05:04;11.50;99.90
1948;DHT22;974;52.400;9.818;2023-04-24T03:07:30;11.50;99.90
1948;DHT22;974;52.400;9.818;2023-04-24T03:09:56;11.50;99.90
1948;DHT22;974;52.400;9.818;2023-04-24T03:12:23;11.50;99.90
1948;DHT22;974;52.400;9.818;2023-04-24T03:14:49;11.50;99.90
1948;DHT22;974;52.400;9.818;2023-04-24T03:17:14;11.50;99.90
1948;DHT22;974;52.400;9.818;2023-04-24T03:19:40;11.50;99.90
1948;DHT22;974;52.400;9.818;2023-04-24T03:22:05;11.50;99.90
1948;DHT22;974;52.400;9.818;2023-04-24T03:24:31;11.50;99.90
1948;DHT22;974;52.400;9.818;2023-04-24T03:26:57;11.50;99.90
1948;DHT22;974;52.400;9.818;2023-04-24T03:29:22;11.40;99.90
1948;DHT22;974;52.400;9.818;2023-04-24T03:31:48;11.40;99.90
1948;DHT22;974;52.400;9.818;2023-04-24T03:34:13;11.40;99.90
1948;DHT22;974;52.400;9.818;2023-04-24T03:36:39;11.40;99.90
1948;DHT22;974;52.400;9.818;2023-04-24T03:39:05;11.40;99.90
1948;DHT22;974;52.400;9.818;2023-04-24T03:41:30;11.40;99.90
1948;DHT22;974;52.400;9.818;2023-04-24T03:43:56;11.40;99.90
1948;DHT22;974;52.400;9.818;2023-04-24T03:46:21;11.40;99.90
1948;DHT22;974;52.400;9.818;2023-04-24T03:48:47;11.30;99.90
1948;DHT22;974;52.400;9.818;2023-04-24T03:51:12;11.30;99.90
1948;DHT22;974;52.400;9.818;2023-04-24T03:53:38;11.30;99.90
1948;DHT22;974;52.400;9.818;2023-04-24T03:56:03;11.30;99.90
1948;DHT22;974;52.400;9.818;2023-04-24T03:58:29;11.20;99.90
1948;DHT22;974;52.400;9.818;2023-04-24T04:00:54;11.20;99.90
1948;DHT22;974;52.400;9.818;2023-04-24T04:03:22;11.30;99.90
1948;DHT22;974;52.400;9.818;2023-04-24T04:05:47;11.20;99.90
1948;DHT22;974;52.400;9.818;2023-04-24T04:08:13;11.20;99.90
1948;DHT22;974;52.400;9.818;2023-04-24T04:10:38;11.20;99.90
1948;DHT22;974;52.400;9.818;2023-04-24T04:13:04;11.20;99.90
1948;DHT22;974;52.400;9.818;2023-04-24T04:15:31;11.10;99.90
1948;DHT22;974;52.400;9.818;2023-04-24T04:17:56;11.10;99.90
1948;DHT22;974;52.400;9.818;2023-04-24T04:20:22;11.00;99.90
1948;DHT22;974;52.400;9.818;2023-04-24T04:22:48;10.90;99.90
1948;DHT22;974;52.400;9.818;2023-04-24T04:25:13;11.00;99.90
1948;DHT22;974;52.400;9.818;2023-04-24T04:27:39;10.80;99.90
1948;DHT22;974;52.400;9.818;2023-04-24T04:30:07;10.90;99.90
1948;DHT22;974;52.400;9.818;2023-04-24T04:32:34;10.90;99.90
1948;DHT22;974;52.400;9.818;2023-04-24T04:35:03;10.90;99.90
1948;DHT22;974;52.400;9.818;2023-04-24T04:37:29;10.80;99.90
1948;DHT22;974;52.400;9.818;2023-04-24T04:39:55;10.80;99.90
1948;DHT22;974;52.400;9.818;2023-04-24T04:42:20;10.80;99.90
1948;DHT22;974;52.400;9.818;2023-04-24T04:44:46;10.70;99.90
1948;DHT22;974;52.400;9.818;2023-04-24T04:47:12;10.70;99.90
1948;DHT22;974;52.400;9.818;2023-04-24T04:49:40;10.80;99.90
1948;DHT22;974;52.400;9.818;2023-04-24T04:52:06;10.80;99.90
1948;DHT22;974;52.400;9.818;2023-04-24T04:54:32;10.80;99.90
1948;DHT22;974;52.400;9.818;2023-04-24T04:56:57;10.90;99.90
1948;DHT22;974;52.400;9.818;2023-04-24T04:59:23;10.90;99.90
1948;DHT22;974;52.400;9.818;2023-04-24T05:01:48;10.90;99.90
1948;DHT22;974;52.400;9.818;2023-04-24T05:04:14;11.00;99.90
1948;DHT22;974;52.400;9.818;2023-04-24T05:06:39;11.00;99.90
1948;DHT22;974;52.400;9.818;2023-04-24T05:09:05;11.10;99.90
1948;DHT22;974;52.400;9.818;2023-04-24T05:11:32;11.10;99.90
1948;DHT22;974;52.400;9.818;2023-04-24T05:13:58;11.10;99.90
1948;DHT22;974;52.400;9.818;2023-04-24T05:16:23;11.20;99.90
1948;DHT22;974;52.400;9.818;2023-04-24T05:18:49;11.20;99.90
1948;DHT22;974;52.400;9.818;2023-04-24T05:21:14;11.20;99.90
1948;DHT22;974;52.400;9.818;2023-04-24T05:23:39;11.30;99.90
1948;DHT22;974;52.400;9.818;2023-04-24T05:26:05;11.40;99.90
1948;DHT22;974;52.400;9.818;2023-04-24T05:28:30;11.50;99.90
1948;DHT22;974;52.400;9.818;2023-04-24T05:30:56;11.50;99.90
1948;DHT22;974;52.400;9.818;2023-04-24T05:33:22;11.50;99.90
1948;DHT22;974;52.400;9.818;2023-04-24T05:35:48;11.60;99.90
1948;DHT22;974;52.400;9.818;2023-04-24T05:38:13;11.60;99.90
1948;DHT22;974;52.400;9.818;2023-04-24T05:40:40;11.70;99.90
1948;DHT22;974;52.400;9.818;2023-04-24T05:43:05;11.70;99.90
1948;DHT22;974;52.400;9.818;2023-04-24T05:45:31;11.70;99.90
1948;DHT22;974;52.400;9.818;2023-04-24T05:47:56;11.70;99.90
1948;DHT22;974;52.400;9.818;2023-04-24T05:50:22;11.80;99.90
1948;DHT22;974;52.400;9.818;2023-04-24T05:52:48;11.90;99.90
1948;DHT22;974;52.400;9.818;2023-04-24T05:55:13;12.00;99.90
1948;DHT22;974;52.400;9.818;2023-04-24T05:57:39;12.00;99.90
1948;DHT22;974;52.400;9.818;2023-04-24T06:00:05;12.10;99.90
1948;DHT22;974;52.400;9.818;2023-04-24T06:02:31;12.20;99.90
1948;DHT22;974;52.400;9.818;2023-04-24T06:04:58;12.20;99.90
1948;DHT22;974;52.400;9.818;2023-04-24T06:07:25;12.30;99.90
1948;DHT22;974;52.400;9.818;2023-04-24T06:09:51;12.30;99.90
1948;DHT22;974;52.400;9.818;2023-04-24T06:12:17;12.30;99.90
1948;DHT22;974;52.400;9.818;2023-04-24T06:14:43;12.30;99.90
1948;DHT22;974;52.400;9.818;2023-04-24T06:17:08;12.40;99.90
1948;DHT22;974;52.400;9.818;2023-04-24T06:19:34;12.30;99.90
1948;DHT22;974;52.400;9.818;2023-04-24T06:21:59;12.30;99.90
1948;DHT22;974;52.400;9.818;2023-04-24T06:24:28;12.20;99.90
1948;DHT22;974;52.400;9.818;2023-04-24T06:26:54;12.20;99.90
1948;DHT22;974;52.400;9.818;2023-04-24T06:29:19;12.20;99.90
1948;DHT22;974;52.400;9.818;2023-04-24T06:31:45;12.10;99.90
1948;DHT22;974;52.400;9.818;2023-04-24T06:34:10;12.10;99.90
1948;DHT22;974;52.400;9.818;2023-04-24T06:36:36;12.10;99.90
1948;DHT22;974;52.400;9.818;2023-04-24T06:39:01;12.10;99.90
1948;DHT22;974;52.400;9.818;2023-04-24T06:41:28;12.20;99.90
1948;DHT22;974;52.400;9.818;2023-04-24T06:43:54;12.10;99.90
1948;DHT22;974;52.400;9.818;2023-04-24T06:46:19;12.20;99.90
1948;DHT22;974;52.400;9.818;2023-04-24T06:48:47;12.20;99.90
1948;DHT22;974;52.400;9.818;2023-04-24T06:51:13;12.20;99.90
1948;DHT22;974;52.400;9.818;2023-04-24T06:53:38;12.30;99.90
1948;DHT22;974;52.400;9.818;2023-04-24T06:56:04;12.30;99.90
1948;DHT22;974;52.400;9.818;2023-04-24T06:58:30;12.40;99.90
1948;DHT22;974;52.400;9.818;2023-04-24T07:00:56;12.40;99.90
1948;DHT22;974;52.400;9.818;2023-04-24T07:03:21;12.40;99.90
1948;DHT22;974;52.400;9.818;2023-04-24T07:05:48;12.40;99.90
1948;DHT22;974;52.400;9.818;2023-04-24T07:08:14;12.50;99.90
1948;DHT22;974;52.400;9.818;2023-04-24T07:10:42;12.50;99.90
1948;DHT22;974;52.400;9.818;2023-04-24T07:13:07;12.50;99.90
1948;DHT22;974;52.400;9.818;2023-04-24T07:15:33;12.50;99.90
1948;DHT22;974;52.400;9.818;2023-04-24T07:18:00;12.50;99.90
1948;DHT22;974;52.400;9.818;2023-04-24T07:20:25;12.50;99.90
1948;DHT22;974;52.400;9.818;2023-04-24T07:22:51;12.40;99.90
1948;DHT22;974;52.400;9.818;2023-04-24T07:25:19;12.50;99.90
1948;DHT22;974;52.400;9.818;2023-04-24T07:27:44;12.50;99.90
1948;DHT22;974;52.400;9.818;2023-04-24T07:30:10;12.50;99.90
1948;DHT22;974;52.400;9.818;2023-04-24T07:32:36;12.60;99.90
1948;DHT22;974;52.400;9.818;2023-04-24T07:35:01;12.60;99.90
1948;DHT22;974;52.400;9.818;2023-04-24T07:37:28;12.40;99.90
1948;DHT22;974;52.400;9.818;2023-04-24T07:39:54;12.60;99.90
1948;DHT22;974;52.400;9.818;2023-04-24T07:42:20;12.60;99.90
1948;DHT22;974;52.400;9.818;2023-04-24T07:44:45;12.50;99.90
1948;DHT22;974;52.400;9.818;2023-04-24T07:47:13;12.50;99.90
1948;DHT22;974;52.400;9.818;2023-04-24T07:49:41;12.60;99.90
1948;DHT22;974;52.400;9.818;2023-04-24T07:52:07;12.30;99.90
1948;DHT22;974;52.400;9.818;2023-04-24T07:54:32;12.30;99.90
1948;DHT22;974;52.400;9.818;2023-04-24T07:56:58;12.40;99.90
1948;DHT22;974;52.400;9.818;2023-04-24T07:59:23;12.40;99.90
1948;DHT22;974;52.400;9.818;2023-04-24T08:01:49;12.60;99.90
1948;DHT22;974;52.400;9.818;2023-04-24T08:04:15;12.50;99.90
1948;DHT22;974;52.400;9.818;2023-04-24T08:06:40;12.50;99.90
1948;DHT22;974;52.400;9.818;2023-04-24T08:09:06;12.50;99.90
1948;DHT22;974;52.400;9.818;2023-04-24T08:11:31;12.50;99.90
1948;DHT22;974;52.400;9.818;2023-04-24T08:13:57;12.70;99.90
1948;DHT22;974;52.400;9.818;2023-04-24T08:16:22;12.60;99.90
1948;DHT22;974;52.400;9.818;2023-04-24T08:18:51;12.70;99.90
1948;DHT22;974;52.400;9.818;2023-04-24T08:21:17;12.80;99.90
1948;DHT22;974;52.400;9.818;2023-04-24T08:23:44;12.90;99.90
1948;DHT22;974;52.400;9.818;2023-04-24T08:26:11;13.00;99.90
1948;DHT22;974;52.400;9.818;2023-04-24T08:28:37;13.00;99.90
1948;DHT22;974;52.400;9.818;2023-04-24T08:31:02;13.00;99.90
1948;DHT22;974;52.400;9.818;2023-04-24T08:33:28;13.00;99.90
1948;DHT22;974;52.400;9.818;2023-04-24T08:36:03;12.80;99.90
1948;DHT22;974;52.400;9.818;2023-04-24T08:38:29;12.90;99.90
1948;DHT22;974;52.400;9.818;2023-04-24T08:40:55;13.00;99.90
1948;DHT22;974;52.400;9.818;2023-04-24T08:43:22;13.10;99.90
1948;DHT22;974;52.400;9.818;2023-04-24T08:45:47;13.00;99.90
1948;DHT22;974;52.400;9.818;2023-04-24T08:48:13;12.70;99.90
1948;DHT22;974;52.400;9.818;2023-04-24T08:50:40;12.90;99.90
1948;DHT22;974;52.400;9.818;2023-04-24T08:53:08;12.90;99.90
1948;DHT22;974;52.400;9.818;2023-04-24T08:55:34;13.00;99.90
1948;DHT22;974;52.400;9.818;2023-04-24T08:57:59;12.90;99.90
1948;DHT22;974;52.400;9.818;2023-04-24T09:00:26;13.00;99.90
1948;DHT22;974;52.400;9.818;2023-04-24T09:02:53;12.90;99.90
1948;DHT22;974;52.400;9.818;2023-04-24T09:05:21;12.90;99.90
1948;DHT22;974;52.400;9.818;2023-04-24T09:07:50;13.10;99.90
1948;DHT22;974;52.400;9.818;2023-04-24T09:10:18;13.20;99.90
1948;DHT22;974;52.400;9.818;2023-04-24T09:12:45;13.30;99.90
1948;DHT22;974;52.400;9.818;2023-04-24T09:15:11;13.40;99.90
1948;DHT22;974;52.400;9.818;2023-04-24T09:17:38;13.40;99.90
1948;DHT22;974;52.400;9.818;2023-04-24T09:20:04;13.50;99.90
1948;DHT22;974;52.400;9.818;2023-04-24T09:22:32;13.70;99.90
1948;DHT22;974;52.400;9.818;2023-04-24T09:25:06;13.80;99.90
1948;DHT22;974;52.400;9.818;2023-04-24T09:27:33;13.80;99.90
1948;DHT22;974;52.400;9.818;2023-04-24T09:30:00;13.70;99.90
1948;DHT22;974;52.400;9.818;2023-04-24T09:32:26;13.70;99.90
1948;DHT22;974;52.400;9.818;2023-04-24T09:35:28;13.50;99.90
1948;DHT22;974;52.400;9.818;2023-04-24T09:37:53;13.50;99.90
1948;DHT22;974;52.400;9.818;2023-04-24T09:40:23;13.40;99.90
1948;DHT22;974;52.400;9.818;2023-04-24T09:42:54;13.30;99.90
1948;DHT22;974;52.400;9.818;2023-04-24T09:45:21;13.10;99.90
1948;DHT22;974;52.400;9.818;2023-04-24T09:47:51;13.00;99.90
1948;DHT22;974;52.400;9.818;2023-04-24T09:50:17;13.00;99.90
1948;DHT22;974;52.400;9.818;2023-04-24T09:52:44;13.00;99.90
1948;DHT22;974;52.400;9.818;2023-04-24T09:55:12;13.10;99.90
1948;DHT22;974;52.400;9.818;2023-04-24T09:57:47;13.20;99.90
1948;DHT22;974;52.400;9.818;2023-04-24T10:00:13;13.20;99.90
1948;DHT22;974;52.400;9.818;2023-04-24T10:02:42;13.30;99.90
1948;DHT22;974;52.400;9.818;2023-04-24T10:05:11;13.20;99.90
1948;DHT22;974;52.400;9.818;2023-04-24T10:07:37;13.30;99.90
1948;DHT22;974;52.400;9.818;2023-04-24T10:10:03;13.20;99.90
1948;DHT22;974;52.400;9.818;2023-04-24T10:12:29;13.20;99.90
1948;DHT22;974;52.400;9.818;2023-04-24T10:14:56;13.10;99.90
1948;DHT22;974;52.400;9.818;2023-04-24T10:17:22;13.20;99.90
1948;DHT22;974;52.400;9.818;2023-04-24T10:19:50;13.40;99.90
1948;DHT22;974;52.400;9.818;2023-04-24T10:22:17;13.60;99.90
1948;DHT22;974;52.400;9.818;2023-04-24T10:24:44;13.60;99.90
1948;DHT22;974;52.400;9.818;2023-04-24T10:27:10;13.60;99.90
1948;DHT22;974;52.400;9.818;2023-04-24T10:29:37;13.50;99.90
1948;DHT22;974;52.400;9.818;2023-04-24T10:32:06;13.70;99.90
1948;DHT22;974;52.400;9.818;2023-04-24T10:34:32;13.40;99.90
1948;DHT22;974;52.400;9.818;2023-04-24T10:36:58;13.40;99.90
1948;DHT22;974;52.400;9.818;2023-04-24T10:39:23;13.30;99.90
1948;DHT22;974;52.400;9.818;2023-04-24T10:41:49;13.20;99.90
1948;DHT22;974;52.400;9.818;2023-04-24T10:44:15;13.10;99.90
1948;DHT22;974;52.400;9.818;2023-04-24T10:46:46;13.10;99.90
1948;DHT22;974;52.400;9.818;2023-04-24T10:49:12;13.00;99.90
1948;DHT22;974;52.400;9.818;2023-04-24T10:51:45;12.80;99.90
1948;DHT22;974;52.400;9.818;2023-04-24T10:54:25;12.80;99.90
1948;DHT22;974;52.400;9.818;2023-04-24T10:56:51;12.70;99.90
1948;DHT22;974;52.400;9.818;2023-04-24T10:59:25;12.70;99.90
1948;DHT22;974;52.400;9.818;2023-04-24T11:01:53;12.70;99.90
1948;DHT22;974;52.400;9.818;2023-04-24T11:04:29;12.60;99.90
1948;DHT22;974;52.400;9.818;2023-04-24T11:06:55;12.70;99.90
1948;DHT22;974;52.400;9.818;2023-04-24T11:09:22;12.70;99.90
1948;DHT22;974;52.400;9.818;2023-04-24T11:11:47;12.80;99.90
1948;DHT22;974;52.400;9.818;2023-04-24T11:14:16;12.70;99.90
1948;DHT22;974;52.400;9.818;2023-04-24T11:16:52;12.80;99.90
1948;DHT22;974;52.400;9.818;2023-04-24T11:19:25;12.80;99.90
1948;DHT22;974;52.400;9.818;2023-04-24T11:22:14;12.70;99.90
1948;DHT22;974;52.400;9.818;2023-04-24T11:24:49;12.70;99.90
1948;DHT22;974;52.400;9.818;2023-04-24T11:27:17;12.70;99.90
1948;DHT22;974;52.400;9.818;2023-04-24T11:35:02;12.70;99.90
1948;DHT22;974;52.400;9.818;2023-04-24T11:37:36;12.70;99.90
1948;DHT22;974;52.400;9.818;2023-04-24T11:40:04;12.80;99.90
1948;DHT22;974;52.400;9.818;2023-04-24T11:42:40;13.30;99.90
1948;DHT22;974;52.400;9.818;2023-04-24T11:47:42;19.20;99.90
1948;DHT22;974;52.400;9.818;2023-04-24T11:50:19;19.00;99.90
1948;DHT22;974;52.400;9.818;2023-04-24T11:52:47;17.50;99.30
1948;DHT22;974;52.400;9.818;2023-04-24T11:57:48;16.10;99.90
1948;DHT22;974;52.400;9.818;2023-04-24T12:02:44;14.70;99.90
1948;DHT22;974;52.400;9.818;2023-04-24T12:05:23;14.40;99.90
1948;DHT22;974;52.400;9.818;2023-04-24T12:07:49;13.90;99.90
1948;DHT22;974;52.400;9.818;2023-04-24T12:10:19;14.60;99.90
1948;DHT22;974;52.400;9.818;2023-04-24T12:12:45;14.50;99.90
1948;DHT22;974;52.400;9.818;2023-04-24T12:15:11;14.30;99.90
1948;DHT22;974;52.400;9.818;2023-04-24T12:17:41;14.20;99.90
1948;DHT22;974;52.400;9.818;2023-04-24T12:20:08;13.90;99.90
1948;DHT22;974;52.400;9.818;2023-04-24T12:22:47;13.50;99.90
1948;DHT22;974;52.400;9.818;2023-04-24T12:25:14;13.30;99.90
1948;DHT22;974;52.400;9.818;2023-04-24T12:27:40;13.10;99.90
1948;DHT22;974;52.400;9.818;2023-04-24T12:30:09;12.90;99.90
1948;DHT22;974;52.400;9.818;2023-04-24T12:32:40;13.00;99.90
1948;DHT22;974;52.400;9.818;2023-04-24T12:35:06;12.90;99.90
1948;DHT22;974;52.400;9.818;2023-04-24T12:37:33;12.90;99.90
1948;DHT22;974;52.400;9.818;2023-04-24T12:40:08;12.90;99.90
1948;DHT22;974;52.400;9.818;2023-04-24T12:42:35;13.10;99.90
1948;DHT22;974;52.400;9.818;2023-04-24T12:45:03;13.00;99.90
1948;DHT22;974;52.400;9.818;2023-04-24T12:47:30;13.10;99.90
1948;DHT22;974;52.400;9.818;2023-04-24T12:49:57;13.00;99.90
1948;DHT22;974;52.400;9.818;2023-04-24T12:52:24;13.10;99.90
1948;DHT22;974;52.400;9.818;2023-04-24T12:54:52;13.30;99.90
1948;DHT22;974;52.400;9.818;2023-04-24T12:57:18;13.60;99.90
1948;DHT22;974;52.400;9.818;2023-04-24T12:59:44;13.60;99.90
1948;DHT22;974;52.400;9.818;2023-04-24T13:02:11;13.50;99.90
1948;DHT22;974;52.400;9.818;2023-04-24T13:04:37;13.20;99.90
1948;DHT22;974;52.400;9.818;2023-04-24T13:07:02;13.00;99.90
1948;DHT22;974;52.400;9.818;2023-04-24T13:09:28;12.60;99.90
1948;DHT22;974;52.400;9.818;2023-04-24T13:11:54;12.70;99.90
1948;DHT22;974;52.400;9.818;2023-04-24T13:14:20;12.60;99.90
1948;DHT22;974;52.400;9.818;2023-04-24T13:16:45;12.30;99.90
1948;DHT22;974;52.400;9.818;2023-04-24T13:19:11;12.10;99.90
1948;DHT22;974;52.400;9.818;2023-04-24T13:21:36;12.10;99.90
1948;DHT22;974;52.400;9.818;2023-04-24T13:24:02;12.00;99.90
1948;DHT22;974;52.400;9.818;2023-04-24T13:26:30;12.00;99.90
1948;DHT22;974;52.400;9.818;2023-04-24T13:28:55;11.80;99.90
1948;DHT22;974;52.400;9.818;2023-04-24T13:31:21;11.70;99.90
1948;DHT22;974;52.400;9.818;2023-04-24T13:33:46;11.70;99.90
1948;DHT22;974;52.400;9.818;2023-04-24T13:36:12;11.60;99.90
1948;DHT22;974;52.400;9.818;2023-04-24T13:38:37;11.70;99.90
1948;DHT22;974;52.400;9.818;2023-04-24T13:41:03;11.30;99.90
1948;DHT22;974;52.400;9.818;2023-04-24T13:43:28;11.40;99.90
1948;DHT22;974;52.400;9.818;2023-04-24T13:45:54;11.30;99.90
1948;DHT22;974;52.400;9.818;2023-04-24T13:48:19;11.30;99.90
1948;DHT22;974;52.400;9.818;2023-04-24T13:50:46;11.40;99.90
1948;DHT22;974;52.400;9.818;2023-04-24T13:53:13;11.30;99.90
1948;DHT22;974;52.400;9.818;2023-04-24T13:55:39;11.10;99.90
1948;DHT22;974;52.400;9.818;2023-04-24T13:58:04;11.10;99.90
1948;DHT22;974;52.400;9.818;2023-04-24T14:00:31;10.90;99.90
1948;DHT22;974;52.400;9.818;2023-04-24T14:02:56;11.20;99.90
1948;DHT22;974;52.400;9.818;2023-04-24T14:05:22;11.10;99.90
1948;DHT22;974;52.400;9.818;2023-04-24T14:07:47;10.90;99.90
1948;DHT22;974;52.400;9.818;2023-04-24T14:10:13;10.80;99.90
1948;DHT22;974;52.400;9.818;2023-04-24T14:12:38;10.50;99.90
1948;DHT22;974;52.400;9.818;2023-04-24T14:15:04;10.60;99.90
1948;DHT22;974;52.400;9.818;2023-04-24T14:17:30;10.40;99.90
1948;DHT22;974;52.400;9.818;2023-04-24T14:19:56;10.40;99.90
1948;DHT22;974;52.400;9.818;2023-04-24T14:22:22;10.50;99.90
1948;DHT22;974;52.400;9.818;2023-04-24T14:24:47;10.60;99.90
1948;DHT22;974;52.400;9.818;2023-04-24T14:27:13;10.50;99.90
1948;DHT22;974;52.400;9.818;2023-04-24T14:29:38;10.30;99.90
1948;DHT22;974;52.400;9.818;2023-04-24T14:32:04;10.30;99.90
1948;DHT22;974;52.400;9.818;2023-04-24T14:34:29;10.00;99.90
1948;DHT22;974;52.400;9.818;2023-04-24T14:36:55;10.00;99.90
1948;DHT22;974;52.400;9.818;2023-04-24T14:39:20;9.70;99.90
1948;DHT22;974;52.400;9.818;2023-04-24T14:41:46;9.90;99.90
1948;DHT22;974;52.400;9.818;2023-04-24T14:44:11;9.60;99.90
1948;DHT22;974;52.400;9.818;2023-04-24T14:46:37;9.80;99.90
1948;DHT22;974;52.400;9.818;2023-04-24T14:49:02;9.70;99.90
1948;DHT22;974;52.400;9.818;2023-04-24T14:51:28;9.80;99.90
1948;DHT22;974;52.400;9.818;2023-04-24T14:53:53;9.80;99.90
1948;DHT22;974;52.400;9.818;2023-04-24T14:56:19;9.80;99.90
1948;DHT22;974;52.400;9.818;2023-04-24T14:58:45;9.60;99.90
1948;DHT22;974;52.400;9.818;2023-04-24T15:01:10;9.70;99.90
1948;DHT22;974;52.400;9.818;2023-04-24T15:03:36;9.70;99.90
1948;DHT22;974;52.400;9.818;2023-04-24T15:06:01;9.80;99.90
1948;DHT22;974;52.400;9.818;2023-04-24T15:08:27;9.80;99.90
1948;DHT22;974;52.400;9.818;2023-04-24T15:10:53;10.00;99.90
1948;DHT22;974;52.400;9.818;2023-04-24T15:13:18;9.90;99.90
1948;DHT22;974;52.400;9.818;2023-04-24T15:15:46;9.90;99.90
1948;DHT22;974;52.400;9.818;2023-04-24T15:18:12;9.90;99.90
1948;DHT22;974;52.400;9.818;2023-04-24T15:20:38;9.80;99.90
1948;DHT22;974;52.400;9.818;2023-04-24T15:23:08;9.50;99.90
1948;DHT22;974;52.400;9.818;2023-04-24T15:25:34;9.60;99.90
1948;DHT22;974;52.400;9.818;2023-04-24T15:28:00;9.70;99.90
1948;DHT22;974;52.400;9.818;2023-04-24T15:30:26;9.60;99.90
1948;DHT22;974;52.400;9.818;2023-04-24T15:32:51;9.70;99.90
1948;DHT22;974;52.400;9.818;2023-04-24T15:35:17;9.80;99.90
1948;DHT22;974;52.400;9.818;2023-04-24T15:37:43;9.80;99.90
1948;DHT22;974;52.400;9.818;2023-04-24T15:40:09;9.90;99.90
1948;DHT22;974;52.400;9.818;2023-04-24T15:42:38;10.00;99.90
1948;DHT22;974;52.400;9.818;2023-04-24T15:45:04;10.10;99.90
1948;DHT22;974;52.400;9.818;2023-04-24T15:47:30;10.20;99.90
1948;DHT22;974;52.400;9.818;2023-04-24T15:49:57;10.20;99.90
1948;DHT22;974;52.400;9.818;2023-04-24T15:52:22;10.20;99.90
1948;DHT22;974;52.400;9.818;2023-04-24T15:54:48;10.20;99.90
1948;DHT22;974;52.400;9.818;2023-04-24T15:57:14;10.10;99.90
1948;DHT22;974;52.400;9.818;2023-04-24T15:59:39;10.10;99.90
1948;DHT22;974;52.400;9.818;2023-04-24T16:02:05;10.10;99.90
1948;DHT22;974;52.400;9.818;2023-04-24T16:04:30;10.10;99.90
1948;DHT22;974;52.400;9.818;2023-04-24T16:06:56;10.10;99.90
1948;DHT22;974;52.400;9.818;2023-04-24T16:09:22;10.10;99.90
1948;DHT22;974;52.400;9.818;2023-04-24T16:11:47;10.00;99.90
1948;DHT22;974;52.400;9.818;2023-04-24T16:14:13;10.10;99.90
1948;DHT22;974;52.400;9.818;2023-04-24T16:16:38;10.10;99.90
1948;DHT22;974;52.400;9.818;2023-04-24T16:19:04;10.10;99.90
1948;DHT22;974;52.400;9.818;2023-04-24T16:21:32;10.10;99.90
1948;DHT22;974;52.400;9.818;2023-04-24T16:23:58;10.10;99.90
1948;DHT22;974;52.400;9.818;2023-04-24T16:26:23;10.10;99.90